createdAt,value
2022-08-30T00:02:21.039Z,98900.53
2022-08-30T00:04:48.399Z,98901.41
2022-08-30T00:07:15.714Z,98901.19
2022-08-30T00:09:42.613Z,98909.75
2022-08-30T00:12:09.917Z,98900.50
2022-08-30T00:14:37.257Z,98907.34
2022-08-30T00:17:04.365Z,98906.31
2022-08-30T00:19:31.479Z,98905.66
2022-08-30T00:21:58.265Z,98910.25
2022-08-30T00:24:25.109Z,98904.03
2022-08-30T00:26:51.910Z,98909.00
2022-08-30T00:29:18.711Z,98907.75
2022-08-30T00:31:45.444Z,98912.09
2022-08-30T00:34:12.249Z,98914.03
2022-08-30T00:36:39.000Z,98906.31
2022-08-30T00:39:06.461Z,98910.50
2022-08-30T00:41:33.661Z,98913.47
2022-08-30T00:44:01.314Z,98918.44
2022-08-30T00:46:28.295Z,98909.53
2022-08-30T00:48:56.602Z,98916.38
2022-08-30T00:51:24.216Z,98909.91
2022-08-30T00:53:54.966Z,98914.38
2022-08-30T00:56:24.618Z,98914.16
2022-08-30T00:58:55.877Z,98909.28
2022-08-30T01:01:23.286Z,98909.47
2022-08-30T01:03:50.556Z,98908.25
2022-08-30T01:06:18.068Z,98908.16
2022-08-30T01:08:46.868Z,98905.28
2022-08-30T01:11:16.944Z,98919.31
2022-08-30T01:13:47.153Z,98916.09
2022-08-30T01:16:14.342Z,98914.41
2022-08-30T01:18:41.597Z,98923.16
2022-08-30T01:21:24.505Z,98919.53
2022-08-30T01:23:55.785Z,98927.03
2022-08-30T01:26:23.130Z,98922.56
2022-08-30T01:28:54.867Z,98913.50
2022-08-30T01:31:21.803Z,98912.16
2022-08-30T01:33:48.657Z,98916.03
2022-08-30T01:36:15.779Z,98915.44
2022-08-30T01:38:50.024Z,98911.19
2022-08-30T01:41:18.646Z,98910.13
2022-08-30T01:43:45.708Z,98912.25
2022-08-30T01:46:15.859Z,98913.88
2022-08-30T01:48:54.121Z,98909.50
2022-08-30T01:51:23.659Z,98905.69
2022-08-30T01:53:50.693Z,98902.97
2022-08-30T01:56:17.989Z,98904.00
2022-08-30T01:58:45.741Z,98912.25
2022-08-30T02:01:15.903Z,98914.53
2022-08-30T02:03:46.607Z,98907.28
2022-08-30T02:06:16.444Z,98908.16
2022-08-30T02:08:44.254Z,98908.44
2022-08-30T02:11:12.214Z,98902.75
2022-08-30T02:13:40.394Z,98897.94
2022-08-30T02:16:10.233Z,98894.28
2022-08-30T02:18:39.369Z,98892.12
2022-08-30T02:21:07.552Z,98899.25
2022-08-30T02:23:34.955Z,98895.28
2022-08-30T02:26:01.943Z,98896.66
2022-08-30T02:28:29.200Z,98894.13
2022-08-30T02:30:55.987Z,98892.19
2022-08-30T02:33:22.783Z,98886.50
2022-08-30T02:35:49.578Z,98884.94
2022-08-30T02:38:16.399Z,98888.34
2022-08-30T02:40:47.258Z,98890.25
2022-08-30T02:43:14.157Z,98888.63
2022-08-30T02:45:41.172Z,98885.59
2022-08-30T02:48:08.373Z,98884.78
2022-08-30T02:50:35.200Z,98892.12
2022-08-30T02:53:01.974Z,98884.00
2022-08-30T02:55:28.701Z,98878.22
2022-08-30T02:57:55.540Z,98866.66
2022-08-30T03:00:22.454Z,98879.34
2022-08-30T03:02:49.462Z,98872.75
2022-08-30T03:05:18.259Z,98879.06
2022-08-30T03:07:47.392Z,98877.06
2022-08-30T03:10:15.292Z,98859.72
2022-08-30T03:12:42.737Z,98869.47
2022-08-30T03:15:13.635Z,98868.94
2022-08-30T03:17:41.056Z,98873.72
2022-08-30T03:20:09.746Z,98870.47
2022-08-30T03:22:36.498Z,98870.91
2022-08-30T03:25:05.012Z,98879.22
2022-08-30T03:27:31.954Z,98879.22
2022-08-30T03:29:59.049Z,98879.50
2022-08-30T03:32:25.893Z,98880.34
2022-08-30T03:34:52.672Z,98884.47
2022-08-30T03:37:23.294Z,98886.75
2022-08-30T03:39:52.439Z,98881.72
2022-08-30T03:42:19.985Z,98890.31
2022-08-30T03:44:48.279Z,98878.25
2022-08-30T03:47:15.178Z,98879.75
2022-08-30T03:49:42.167Z,98883.50
2022-08-30T03:52:09.020Z,98892.88
2022-08-30T03:54:35.862Z,98887.97
2022-08-30T03:57:04.910Z,98889.09
2022-08-30T03:59:31.730Z,98887.09
2022-08-30T04:01:59.323Z,98879.97
2022-08-30T04:04:26.194Z,98889.00
2022-08-30T04:06:52.967Z,98887.87
2022-08-30T04:09:20.152Z,98891.44
2022-08-30T04:11:47.014Z,98895.53
2022-08-30T04:14:14.050Z,98897.50
2022-08-30T04:16:41.268Z,98897.03
2022-08-30T04:19:08.141Z,98895.63
2022-08-30T04:21:35.073Z,98901.34
2022-08-30T04:24:09.706Z,98908.00
2022-08-30T04:26:36.718Z,98909.31
2022-08-30T04:29:04.064Z,98905.34
2022-08-30T04:31:31.495Z,98907.31
2022-08-30T04:33:58.331Z,98914.31
2022-08-30T04:36:25.688Z,98910.00
2022-08-30T04:38:52.488Z,98920.31
2022-08-30T04:41:21.038Z,98919.53
2022-08-30T04:43:50.727Z,98914.91
2022-08-30T04:46:19.088Z,98925.38
2022-08-30T04:48:46.958Z,98918.09
2022-08-30T04:51:16.534Z,98920.31
2022-08-30T04:53:43.996Z,98927.06
2022-08-30T04:56:16.388Z,98915.97
2022-08-30T04:58:47.803Z,98927.16
2022-08-30T05:01:19.880Z,98932.44
2022-08-30T05:03:47.912Z,98929.25
2022-08-30T05:06:15.787Z,98939.94
2022-08-30T05:08:46.012Z,98939.00
2022-08-30T05:11:14.869Z,98947.53
2022-08-30T05:13:41.883Z,98944.91
2022-08-30T05:16:09.108Z,98950.03
2022-08-30T05:18:36.966Z,98955.00
2022-08-30T05:21:14.177Z,98960.78
2022-08-30T05:23:42.375Z,98963.41
2022-08-30T05:26:14.628Z,98959.59
2022-08-30T05:28:41.689Z,98956.94
2022-08-30T05:31:14.747Z,98958.50
2022-08-30T05:33:42.117Z,98954.41
2022-08-30T05:36:10.679Z,98958.50
2022-08-30T05:38:37.582Z,98951.88
2022-08-30T05:41:10.686Z,98958.41
2022-08-30T05:43:38.070Z,98969.63
2022-08-30T05:46:19.415Z,98965.63
2022-08-30T05:48:47.004Z,98971.19
2022-08-30T05:51:17.625Z,98976.84
2022-08-30T05:53:45.820Z,98982.28
2022-08-30T05:56:15.744Z,98981.25
2022-08-30T05:58:42.779Z,98986.41
2022-08-30T06:01:20.045Z,98986.91
2022-08-30T06:03:47.044Z,98985.41
2022-08-30T06:06:13.783Z,98977.53
2022-08-30T06:08:40.525Z,98977.38
2022-08-30T06:11:07.282Z,98981.16
2022-08-30T06:13:34.557Z,98976.06
2022-08-30T06:16:01.368Z,98984.12
2022-08-30T06:18:28.977Z,98984.06
2022-08-30T06:20:55.876Z,98982.72
2022-08-30T06:23:23.346Z,98989.38
2022-08-30T06:25:50.506Z,98980.47
2022-08-30T06:28:17.518Z,98983.12
2022-08-30T06:30:44.482Z,98994.28
2022-08-30T06:33:11.353Z,98985.44
2022-08-30T06:35:56.636Z,98985.50
2022-08-30T06:38:25.337Z,98996.44
2022-08-30T06:40:52.130Z,98996.16
2022-08-30T06:43:18.909Z,99007.16
2022-08-30T06:45:45.831Z,98999.25
2022-08-30T06:48:12.743Z,98999.41
2022-08-30T06:50:42.027Z,99001.34
2022-08-30T06:53:09.930Z,98996.03
2022-08-30T06:55:37.399Z,99008.00
2022-08-30T06:58:04.802Z,98994.84
2022-08-30T07:00:31.623Z,98998.31
2022-08-30T07:02:59.107Z,99011.41
2022-08-30T07:05:26.170Z,99003.84
2022-08-30T07:07:55.780Z,99018.63
2022-08-30T07:10:22.677Z,99019.63
2022-08-30T07:12:49.781Z,99018.16
2022-08-30T07:15:20.617Z,99017.84
2022-08-30T07:18:05.741Z,99020.38
2022-08-30T07:20:40.071Z,99020.59
2022-08-30T07:23:08.054Z,99020.09
2022-08-30T07:25:37.007Z,99019.25
2022-08-30T07:28:05.738Z,99019.94
2022-08-30T07:30:33.347Z,99019.78
2022-08-30T07:33:00.462Z,99018.34
2022-08-30T07:35:27.386Z,99019.72
2022-08-30T07:37:54.320Z,99016.22
2022-08-30T07:40:21.239Z,99024.56
2022-08-30T07:42:48.045Z,99024.78
2022-08-30T07:45:14.907Z,99029.19
2022-08-30T07:47:42.103Z,99033.47
2022-08-30T07:50:08.973Z,99035.47
2022-08-30T07:52:35.732Z,99039.53
2022-08-30T07:55:03.165Z,99027.88
2022-08-30T07:57:33.670Z,99031.97
2022-08-30T08:00:01.377Z,99032.47
2022-08-30T08:02:28.600Z,99035.56
2022-08-30T08:04:55.539Z,99029.88
2022-08-30T08:07:22.291Z,99032.97
2022-08-30T08:09:49.826Z,99036.50
2022-08-30T08:12:16.622Z,99034.94
2022-08-30T08:14:43.351Z,99027.22
2022-08-30T08:17:10.147Z,99025.81
2022-08-30T08:19:36.868Z,99033.00
2022-08-30T08:22:22.348Z,99031.00
2022-08-30T08:24:49.983Z,99026.75
2022-08-30T08:27:16.786Z,99027.22
2022-08-30T08:29:43.630Z,99025.44
2022-08-30T08:32:10.462Z,99029.66
2022-08-30T08:34:37.299Z,99025.91
2022-08-30T08:37:04.052Z,99024.87
2022-08-30T08:39:30.890Z,99022.72
2022-08-30T08:42:22.716Z,99025.69
2022-08-30T08:45:00.792Z,99022.28
2022-08-30T08:47:37.675Z,99019.09
2022-08-30T08:50:12.761Z,99026.22
2022-08-30T08:53:45.969Z,99019.31
2022-08-30T08:56:15.662Z,99022.91
2022-08-30T08:58:48.313Z,99021.84
2022-08-30T09:01:20.019Z,99020.66
2022-08-30T09:03:47.496Z,99019.28
2022-08-30T09:06:27.861Z,99013.84
2022-08-30T09:08:55.585Z,99007.66
2022-08-30T09:11:27.891Z,99011.25
2022-08-30T09:13:55.202Z,99007.78
2022-08-30T09:16:51.804Z,99011.97
2022-08-30T09:19:41.407Z,99007.84
2022-08-30T09:22:34.739Z,99000.81
2022-08-30T09:25:13.551Z,98998.62
2022-08-30T09:27:44.856Z,98991.78
2022-08-30T09:30:23.056Z,98993.41
2022-08-30T09:32:57.662Z,98996.81
2022-08-30T09:35:26.987Z,98993.16
2022-08-30T09:38:04.695Z,98991.25
2022-08-30T09:40:41.677Z,98992.47
2022-08-30T09:43:34.654Z,98980.81
2022-08-30T09:46:01.873Z,98980.22
2022-08-30T09:48:37.725Z,98984.12
2022-08-30T09:51:10.369Z,98980.06
2022-08-30T09:54:19.876Z,98981.91
2022-08-30T09:57:12.848Z,98981.03
2022-08-30T10:00:05.052Z,98965.97
2022-08-30T10:02:57.638Z,98974.72
2022-08-30T10:05:55.223Z,98968.47
2022-08-30T10:08:42.990Z,98977.06
2022-08-30T10:11:19.582Z,98972.09
2022-08-30T10:14:05.657Z,98973.09
2022-08-30T10:16:50.333Z,98968.59
2022-08-30T10:19:29.805Z,98961.41
2022-08-30T10:22:04.625Z,98963.06
2022-08-30T10:24:40.384Z,98965.47
2022-08-30T10:27:26.334Z,98962.25
2022-08-30T10:30:02.750Z,98961.28
2022-08-30T10:32:37.947Z,98963.34
2022-08-30T10:35:10.054Z,98959.97
2022-08-30T10:38:06.038Z,98953.59
2022-08-30T10:40:55.006Z,98944.91
2022-08-30T10:43:41.666Z,98947.06
2022-08-30T10:46:16.578Z,98948.41
2022-08-30T10:48:47.478Z,98946.00
2022-08-30T10:51:27.180Z,98945.56
2022-08-30T10:54:18.828Z,98947.69
2022-08-30T10:56:50.739Z,98940.78
2022-08-30T10:59:20.479Z,98940.56
2022-08-30T11:02:12.156Z,98938.12
2022-08-30T11:05:01.457Z,98943.00
2022-08-30T11:07:43.574Z,98940.16
2022-08-30T11:10:38.223Z,98925.38
2022-08-30T11:13:15.886Z,98918.06
2022-08-30T11:16:02.968Z,98921.03
2022-08-30T11:18:34.168Z,98922.44
2022-08-30T11:21:33.531Z,98912.31
2022-08-30T11:24:12.154Z,98911.53
2022-08-30T11:26:45.663Z,98910.22
2022-08-30T11:29:44.844Z,98918.19
2022-08-30T11:32:15.951Z,98909.78
2022-08-30T11:34:46.031Z,98911.16
2022-08-30T11:37:38.619Z,98908.91
2022-08-30T11:40:20.773Z,98900.03
2022-08-30T11:42:49.436Z,98897.88
2022-08-30T11:45:24.995Z,98902.75
2022-08-30T11:48:10.130Z,98897.47
2022-08-30T11:50:55.447Z,98894.19
2022-08-30T11:53:49.899Z,98891.13
2022-08-30T11:56:28.531Z,98885.50
2022-08-30T11:59:06.353Z,98885.19
2022-08-30T12:01:56.391Z,98889.75
2022-08-30T12:04:44.690Z,98885.97
2022-08-30T12:07:32.418Z,98881.69
2022-08-30T12:10:06.398Z,98882.94
2022-08-30T12:12:39.483Z,98869.66
2022-08-30T12:15:25.545Z,98880.00
2022-08-30T12:18:17.220Z,98865.91
2022-08-30T12:20:47.879Z,98878.25
2022-08-30T12:23:23.490Z,98876.31
2022-08-30T12:25:50.595Z,98873.31
2022-08-30T12:28:24.441Z,98870.06
2022-08-30T12:30:52.071Z,98868.72
2022-08-30T12:33:36.594Z,98868.81
2022-08-30T12:36:13.483Z,98870.12
2022-08-30T12:38:40.733Z,98859.28
2022-08-30T12:41:08.047Z,98855.69
2022-08-30T12:43:47.522Z,98856.16
2022-08-30T12:46:17.310Z,98846.34
2022-08-30T12:48:45.089Z,98851.94
2022-08-30T12:51:27.999Z,98849.75
2022-08-30T12:54:22.264Z,98848.47
2022-08-30T12:56:56.577Z,98850.50
2022-08-30T12:59:55.427Z,98848.59
2022-08-30T13:02:28.093Z,98840.69
2022-08-30T13:04:56.514Z,98846.09
2022-08-30T13:07:32.661Z,98841.44
2022-08-30T13:10:08.610Z,98840.03
2022-08-30T13:12:40.327Z,98831.34
2022-08-30T13:15:27.417Z,98825.22
2022-08-30T13:18:28.113Z,98825.34
2022-08-30T13:21:30.225Z,98819.03
2022-08-30T13:24:05.533Z,98829.16
2022-08-30T13:26:35.453Z,98828.50
2022-08-30T13:29:10.379Z,98824.53
2022-08-30T13:31:37.740Z,98822.06
2022-08-30T13:34:05.221Z,98825.16
2022-08-30T13:36:35.189Z,98823.16
2022-08-30T13:39:03.445Z,98825.56
2022-08-30T13:41:33.778Z,98817.31
2022-08-30T13:44:13.242Z,98820.00
2022-08-30T13:46:44.444Z,98816.94
2022-08-30T13:49:45.953Z,98822.16
2022-08-30T13:52:23.002Z,98823.78
2022-08-30T13:54:52.047Z,98812.97
2022-08-30T14:00:14.374Z,98809.50
2022-08-30T14:02:45.419Z,98806.22
2022-08-30T14:05:30.852Z,98805.22
2022-08-30T14:08:00.624Z,98797.56
2022-08-30T14:10:31.226Z,98799.00
2022-08-30T14:13:08.206Z,98793.41
2022-08-30T14:15:39.592Z,98783.81
2022-08-30T14:18:07.724Z,98787.50
2022-08-30T14:20:38.608Z,98779.56
2022-08-30T14:23:07.661Z,98788.66
2022-08-30T14:25:37.727Z,98781.84
2022-08-30T14:28:07.125Z,98780.16
2022-08-30T14:30:33.893Z,98779.97
2022-08-30T14:33:00.923Z,98780.75
2022-08-30T14:35:28.315Z,98776.44
2022-08-30T14:38:04.652Z,98780.63
2022-08-30T14:40:38.490Z,98775.50
2022-08-30T14:43:06.102Z,98778.44
2022-08-30T14:45:32.923Z,98781.94
2022-08-30T14:48:02.790Z,98781.91
2022-08-30T14:50:36.997Z,98784.56
2022-08-30T14:53:05.277Z,98778.22
2022-08-30T14:55:33.939Z,98771.31
2022-08-30T14:58:01.633Z,98769.94
2022-08-30T15:00:28.885Z,98778.59
2022-08-30T15:02:55.668Z,98770.78
2022-08-30T15:05:22.430Z,98762.88
2022-08-30T15:07:51.555Z,98760.69
2022-08-30T15:10:20.801Z,98758.06
2022-08-30T15:12:49.001Z,98769.13
2022-08-30T15:15:19.814Z,98759.50
2022-08-30T15:17:50.522Z,98752.16
2022-08-30T15:20:21.286Z,98755.84
2022-08-30T15:22:48.115Z,98765.75
2022-08-30T15:25:15.279Z,98757.00
2022-08-30T15:27:42.093Z,98757.53
2022-08-30T15:30:10.924Z,98753.50
2022-08-30T15:32:38.016Z,98753.72
2022-08-30T15:35:05.699Z,98744.88
2022-08-30T15:37:34.879Z,98741.16
2022-08-30T15:40:04.540Z,98742.72
2022-08-30T15:42:33.751Z,98750.91
2022-08-30T15:45:00.534Z,98739.94
2022-08-30T15:47:27.723Z,98736.37
2022-08-30T15:50:01.350Z,98740.78
2022-08-30T15:52:28.194Z,98739.38
2022-08-30T15:54:55.224Z,98732.34
2022-08-30T15:57:23.112Z,98730.25
2022-08-30T15:59:50.480Z,98730.69
2022-08-30T16:02:17.483Z,98741.38
2022-08-30T16:04:45.098Z,98734.66
2022-08-30T16:07:14.428Z,98732.50
2022-08-30T16:09:41.683Z,98731.03
2022-08-30T16:12:09.759Z,98727.78
2022-08-30T16:14:37.305Z,98729.38
2022-08-30T16:17:04.996Z,98727.78
2022-08-30T16:19:31.838Z,98733.50
2022-08-30T16:21:58.875Z,98729.69
2022-08-30T16:24:26.054Z,98725.34
2022-08-30T16:26:53.592Z,98729.28
2022-08-30T16:29:20.630Z,98722.44
2022-08-30T16:31:47.611Z,98731.84
2022-08-30T16:34:17.364Z,98726.44
2022-08-30T16:36:44.536Z,98719.13
2022-08-30T16:39:13.494Z,98715.75
2022-08-30T16:41:42.433Z,98708.59
2022-08-30T16:44:10.295Z,98717.75
2022-08-30T16:46:38.660Z,98709.31
2022-08-30T16:49:08.934Z,98713.37
2022-08-30T16:51:37.450Z,98708.62
2022-08-30T16:54:07.744Z,98715.22
2022-08-30T16:56:36.315Z,98717.06
2022-08-30T16:59:07.033Z,98713.94
2022-08-30T17:01:38.221Z,98722.00
2022-08-30T17:04:06.700Z,98721.56
2022-08-30T17:06:33.826Z,98721.66
2022-08-30T17:09:04.343Z,98724.56
2022-08-30T17:11:32.762Z,98725.09
2022-08-30T17:13:59.827Z,98726.94
2022-08-30T17:16:30.113Z,98730.88
2022-08-30T17:19:00.649Z,98724.97
2022-08-30T17:21:30.646Z,98728.81
2022-08-30T17:24:02.120Z,98727.41
2022-08-30T17:26:35.468Z,98723.62
2022-08-30T17:29:03.187Z,98729.25
2022-08-30T17:31:31.134Z,98724.69
2022-08-30T17:34:04.248Z,98733.09
2022-08-30T17:36:36.622Z,98732.00
2022-08-30T17:39:10.707Z,98735.94
2022-08-30T17:41:45.143Z,98736.50
2022-08-30T17:44:19.865Z,98741.97
2022-08-30T17:46:46.713Z,98746.13
2022-08-30T17:49:13.886Z,98744.47
2022-08-30T17:51:42.955Z,98752.50
2022-08-30T17:54:12.798Z,98758.19
2022-08-30T17:56:40.698Z,98753.97
2022-08-30T17:59:09.617Z,98751.31
2022-08-30T18:01:37.313Z,98753.69
2022-08-30T18:04:06.158Z,98759.84
2022-08-30T18:06:34.957Z,98756.53
2022-08-30T18:09:03.865Z,98766.13
2022-08-30T18:11:36.095Z,98762.56
2022-08-30T18:14:04.092Z,98778.16
2022-08-30T18:16:35.082Z,98785.31
2022-08-30T18:19:09.701Z,98781.94
2022-08-30T18:21:37.592Z,98794.53
2022-08-30T18:24:05.433Z,98795.44
2022-08-30T18:26:32.442Z,98795.66
2022-08-30T18:28:59.821Z,98794.22
2022-08-30T18:31:27.251Z,98794.94
2022-08-30T18:33:55.287Z,98798.47
2022-08-30T18:36:22.063Z,98800.53
2022-08-30T18:38:49.010Z,98812.50
2022-08-30T18:41:17.243Z,98810.72
2022-08-30T18:46:31.345Z,98818.13
2022-08-30T18:49:00.208Z,98827.16
2022-08-30T18:51:27.274Z,98831.38
2022-08-30T18:53:55.749Z,98831.72
2022-08-30T18:56:23.045Z,98836.31
2022-08-30T18:58:54.841Z,98835.72
2022-08-30T19:01:23.025Z,98841.84
2022-08-30T19:03:50.645Z,98835.81
2022-08-30T19:06:19.344Z,98836.88
2022-08-30T19:08:46.522Z,98829.41
2022-08-30T19:11:16.251Z,98841.63
2022-08-30T19:13:43.825Z,98849.69
2022-08-30T19:16:12.113Z,98844.53
2022-08-30T19:18:40.631Z,98848.59
2022-08-30T19:21:13.465Z,98855.13
2022-08-30T19:23:40.983Z,98839.72
2022-08-30T19:26:07.744Z,98835.28
2022-08-30T19:28:38.109Z,98838.47
2022-08-30T19:31:06.466Z,98841.25
2022-08-30T19:33:34.047Z,98841.81
2022-08-30T19:36:01.039Z,98848.25
2022-08-30T19:38:27.868Z,98846.28
2022-08-30T19:40:59.649Z,98843.81
2022-08-30T19:43:27.421Z,98856.59
2022-08-30T19:45:59.934Z,98851.41
2022-08-30T19:48:32.700Z,98847.44
2022-08-30T19:51:06.754Z,98855.88
2022-08-30T19:53:34.264Z,98848.56
2022-08-30T19:56:01.074Z,98856.00
2022-08-30T19:58:30.236Z,98850.72
2022-08-30T20:01:10.653Z,98853.84
2022-08-30T20:03:45.258Z,98855.13
2022-08-30T20:06:12.083Z,98855.84
2022-08-30T20:08:39.288Z,98851.97
2022-08-30T20:11:06.810Z,98847.25
2022-08-30T20:13:35.857Z,98844.94
2022-08-30T20:16:02.859Z,98840.56
2022-08-30T20:18:29.605Z,98829.72
2022-08-30T20:20:57.106Z,98833.34
2022-08-30T20:23:25.499Z,98831.66
2022-08-30T20:24:29.158Z,98818.84
2022-08-30T20:25:54.628Z,98829.75
2022-08-30T20:28:22.247Z,98827.47
2022-08-30T20:30:49.396Z,98829.09
2022-08-30T20:33:16.899Z,98826.97
2022-08-30T20:35:48.736Z,98826.63
2022-08-30T20:38:21.441Z,98823.34
2022-08-30T20:40:51.261Z,98821.06
2022-08-30T20:43:19.665Z,98830.03
2022-08-30T20:45:47.695Z,98822.94
2022-08-30T20:48:15.257Z,98826.06
2022-08-30T20:50:42.374Z,98826.87
2022-08-30T20:53:09.827Z,98821.50
2022-08-30T20:55:41.451Z,98825.91
2022-08-30T20:58:08.407Z,98822.34
2022-08-30T21:00:35.520Z,98821.59
2022-08-30T21:03:06.623Z,98824.19
2022-08-30T21:05:51.277Z,98822.22
2022-08-30T21:08:18.672Z,98819.47
2022-08-30T21:10:46.365Z,98810.22
2022-08-30T21:13:13.159Z,98809.25
2022-08-30T21:15:39.884Z,98813.50
2022-08-30T21:18:06.695Z,98812.00
2022-08-30T21:20:33.523Z,98810.63
2022-08-30T21:23:00.386Z,98813.06
2022-08-30T21:25:27.076Z,98811.94
2022-08-30T21:27:54.942Z,98811.37
2022-08-30T21:30:21.793Z,98799.53
2022-08-30T21:32:48.524Z,98810.56
2022-08-30T21:35:33.680Z,98804.81
2022-08-30T21:38:00.495Z,98813.94
2022-08-30T21:40:27.464Z,98806.94
2022-08-30T21:42:54.275Z,98811.44
2022-08-30T21:45:21.002Z,98806.72
2022-08-30T21:47:47.754Z,98800.03
2022-08-30T21:50:14.607Z,98803.38
2022-08-30T21:52:41.342Z,98806.06
2022-08-30T21:55:08.404Z,98805.72
2022-08-30T21:57:35.227Z,98804.19
2022-08-30T22:00:04.431Z,98804.25
2022-08-30T22:02:33.176Z,98803.72
2022-08-30T22:05:00.065Z,98804.94
2022-08-30T22:07:27.720Z,98799.28
2022-08-30T22:09:54.490Z,98792.81
2022-08-30T22:12:21.253Z,98792.38
2022-08-30T22:14:48.048Z,98800.41
2022-08-30T22:17:14.814Z,98797.13
2022-08-30T22:19:41.837Z,98796.25
2022-08-30T22:22:08.643Z,98795.81
2022-08-30T22:24:35.442Z,98786.91
2022-08-30T22:27:03.443Z,98792.13
2022-08-30T22:29:30.607Z,98785.28
2022-08-30T22:31:58.473Z,98798.34
2022-08-30T22:34:25.654Z,98795.38
2022-08-30T22:36:52.431Z,98789.81
2022-08-30T22:39:19.251Z,98793.78
2022-08-30T22:41:46.101Z,98797.37
2022-08-30T22:44:13.426Z,98797.03
2022-08-30T22:46:40.547Z,98796.91
2022-08-30T22:49:09.089Z,98805.37
2022-08-30T22:51:36.764Z,98799.41
2022-08-30T22:54:05.044Z,98801.75
2022-08-30T22:56:34.167Z,98793.16
2022-08-30T22:59:01.277Z,98795.53
2022-08-30T23:01:34.319Z,98790.56
2022-08-30T23:04:01.740Z,98785.94
2022-08-30T23:06:29.559Z,98792.91
2022-08-30T23:08:56.544Z,98799.72
2022-08-30T23:11:23.395Z,98790.28
2022-08-30T23:13:50.339Z,98792.13
2022-08-30T23:16:17.884Z,98789.19
2022-08-30T23:18:46.381Z,98788.44
2022-08-30T23:21:16.658Z,98793.44
2022-08-30T23:24:02.414Z,98787.09
2022-08-30T23:26:48.045Z,98776.75
2022-08-30T23:29:34.089Z,98777.44
2022-08-30T23:32:19.168Z,98771.16
2022-08-30T23:35:04.446Z,98774.22
2022-08-30T23:37:53.204Z,98774.75
2022-08-30T23:40:40.605Z,98777.94
2022-08-30T23:43:27.788Z,98772.78
2022-08-30T23:46:18.980Z,98773.72
2022-08-30T23:49:08.920Z,98767.53
2022-08-30T23:51:56.770Z,98766.03
2022-08-30T23:54:43.354Z,98762.94
2022-08-30T23:57:28.742Z,98764.50
